sensor_id;sensor_type;location;lat;lon;timestamp;P1;durP1;ratioP1;P2;durP2;ratioP2
22131;SDS011;11232;51.748;19.390;2023-02-03T00:01:20;5.70;;;2.20;;
22131;SDS011;11232;51.748;19.390;2023-02-03T00:03:47;4.33;;;1.93;;
22131;SDS011;11232;51.748;19.390;2023-02-03T00:06:13;4.23;;;2.13;;
22131;SDS011;11232;51.748;19.390;2023-02-03T00:08:39;5.97;;;2.07;;
22131;SDS011;11232;51.748;19.390;2023-02-03T00:11:05;5.40;;;2.30;;
22131;SDS011;11232;51.748;19.390;2023-02-03T00:13:31;4.57;;;2.30;;
22131;SDS011;11232;51.748;19.390;2023-02-03T00:15:58;4.40;;;2.07;;
22131;SDS011;11232;51.748;19.390;2023-02-03T00:18:26;6.07;;;2.47;;
22131;SDS011;11232;51.748;19.390;2023-02-03T00:20:52;6.20;;;2.80;;
22131;SDS011;11232;51.748;19.390;2023-02-03T00:23:18;5.27;;;2.43;;
22131;SDS011;11232;51.748;19.390;2023-02-03T00:25:44;4.77;;;2.60;;
22131;SDS011;11232;51.748;19.390;2023-02-03T00:28:10;4.57;;;2.27;;
22131;SDS011;11232;51.748;19.390;2023-02-03T00:30:36;5.73;;;2.30;;
22131;SDS011;11232;51.748;19.390;2023-02-03T00:33:02;4.40;;;2.07;;
22131;SDS011;11232;51.748;19.390;2023-02-03T00:35:28;7.43;;;2.70;;
22131;SDS011;11232;51.748;19.390;2023-02-03T00:37:55;5.33;;;2.33;;
22131;SDS011;11232;51.748;19.390;2023-02-03T00:40:22;5.23;;;2.33;;
22131;SDS011;11232;51.748;19.390;2023-02-03T00:42:49;3.17;;;2.17;;
22131;SDS011;11232;51.748;19.390;2023-02-03T00:45:15;4.47;;;2.47;;
22131;SDS011;11232;51.748;19.390;2023-02-03T00:47:41;3.83;;;2.43;;
22131;SDS011;11232;51.748;19.390;2023-02-03T00:50:07;5.87;;;2.17;;
22131;SDS011;11232;51.748;19.390;2023-02-03T00:52:33;3.27;;;1.77;;
22131;SDS011;11232;51.748;19.390;2023-02-03T00:54:59;6.20;;;2.13;;
22131;SDS011;11232;51.748;19.390;2023-02-03T00:57:25;4.43;;;2.07;;
22131;SDS011;11232;51.748;19.390;2023-02-03T00:59:51;3.13;;;1.60;;
22131;SDS011;11232;51.748;19.390;2023-02-03T01:02:18;3.33;;;1.50;;
22131;SDS011;11232;51.748;19.390;2023-02-03T01:04:44;4.00;;;1.70;;
22131;SDS011;11232;51.748;19.390;2023-02-03T01:07:11;3.50;;;1.73;;
22131;SDS011;11232;51.748;19.390;2023-02-03T01:09:37;4.63;;;1.90;;
22131;SDS011;11232;51.748;19.390;2023-02-03T01:12:03;2.63;;;1.70;;
22131;SDS011;11232;51.748;19.390;2023-02-03T01:14:29;2.17;;;1.80;;
22131;SDS011;11232;51.748;19.390;2023-02-03T01:16:56;3.53;;;1.70;;
22131;SDS011;11232;51.748;19.390;2023-02-03T01:19:22;4.77;;;1.53;;
22131;SDS011;11232;51.748;19.390;2023-02-03T01:21:48;3.03;;;1.40;;
22131;SDS011;11232;51.748;19.390;2023-02-03T01:24:14;3.27;;;1.77;;
22131;SDS011;11232;51.748;19.390;2023-02-03T01:26:40;5.67;;;1.63;;
22131;SDS011;11232;51.748;19.390;2023-02-03T01:29:07;2.37;;;1.70;;
22131;SDS011;11232;51.748;19.390;2023-02-03T01:31:34;1.70;;;1.43;;
22131;SDS011;11232;51.748;19.390;2023-02-03T01:34:00;4.57;;;1.87;;
22131;SDS011;11232;51.748;19.390;2023-02-03T01:36:27;2.63;;;1.50;;
22131;SDS011;11232;51.748;19.390;2023-02-03T01:38:54;4.67;;;1.63;;
22131;SDS011;11232;51.748;19.390;2023-02-03T01:41:21;2.77;;;1.53;;
22131;SDS011;11232;51.748;19.390;2023-02-03T01:43:49;3.47;;;1.63;;
22131;SDS011;11232;51.748;19.390;2023-02-03T01:46:21;3.63;;;1.87;;
22131;SDS011;11232;51.748;19.390;2023-02-03T01:48:49;3.77;;;1.73;;
22131;SDS011;11232;51.748;19.390;2023-02-03T01:51:16;3.77;;;2.43;;
22131;SDS011;11232;51.748;19.390;2023-02-03T01:53:42;6.13;;;1.80;;
22131;SDS011;11232;51.748;19.390;2023-02-03T01:56:09;1.70;;;1.50;;
22131;SDS011;11232;51.748;19.390;2023-02-03T01:58:36;3.77;;;2.00;;
22131;SDS011;11232;51.748;19.390;2023-02-03T02:01:03;5.43;;;2.30;;
22131;SDS011;11232;51.748;19.390;2023-02-03T02:03:37;4.57;;;1.97;;
22131;SDS011;11232;51.748;19.390;2023-02-03T02:06:09;3.93;;;2.30;;
22131;SDS011;11232;51.748;19.390;2023-02-03T02:08:36;4.43;;;2.20;;
22131;SDS011;11232;51.748;19.390;2023-02-03T02:11:02;3.97;;;2.40;;
22131;SDS011;11232;51.748;19.390;2023-02-03T02:13:29;5.00;;;2.60;;
22131;SDS011;11232;51.748;19.390;2023-02-03T02:15:57;4.57;;;1.97;;
22131;SDS011;11232;51.748;19.390;2023-02-03T02:26:47;4.37;;;2.37;;
22131;SDS011;11232;51.748;19.390;2023-02-03T02:37:35;5.03;;;2.50;;
22131;SDS011;11232;51.748;19.390;2023-02-03T02:42:10;4.70;;;2.90;;
22131;SDS011;11232;51.748;19.390;2023-02-03T02:44:40;6.33;;;3.47;;
22131;SDS011;11232;51.748;19.390;2023-02-03T02:47:18;5.30;;;3.30;;
22131;SDS011;11232;51.748;19.390;2023-02-03T02:52:10;6.30;;;2.57;;
22131;SDS011;11232;51.748;19.390;2023-02-03T02:54:38;5.43;;;2.50;;
22131;SDS011;11232;51.748;19.390;2023-02-03T02:57:05;6.00;;;3.03;;
22131;SDS011;11232;51.748;19.390;2023-02-03T02:59:31;7.27;;;3.40;;
22131;SDS011;11232;51.748;19.390;2023-02-03T03:01:57;5.83;;;3.07;;
22131;SDS011;11232;51.748;19.390;2023-02-03T03:04:24;7.03;;;3.07;;
22131;SDS011;11232;51.748;19.390;2023-02-03T03:07:00;9.10;;;3.40;;
22131;SDS011;11232;51.748;19.390;2023-02-03T03:09:40;5.83;;;3.23;;
22131;SDS011;11232;51.748;19.390;2023-02-03T03:12:09;7.43;;;3.20;;
22131;SDS011;11232;51.748;19.390;2023-02-03T03:14:36;9.57;;;4.03;;
22131;SDS011;11232;51.748;19.390;2023-02-03T03:17:05;10.00;;;3.97;;
22131;SDS011;11232;51.748;19.390;2023-02-03T03:19:42;11.60;;;4.00;;
22131;SDS011;11232;51.748;19.390;2023-02-03T03:22:12;8.57;;;3.67;;
22131;SDS011;11232;51.748;19.390;2023-02-03T03:24:40;9.83;;;4.10;;
22131;SDS011;11232;51.748;19.390;2023-02-03T03:27:19;6.77;;;3.87;;
22131;SDS011;11232;51.748;19.390;2023-02-03T03:29:48;9.90;;;4.00;;
22131;SDS011;11232;51.748;19.390;2023-02-03T03:32:16;7.77;;;4.00;;
22131;SDS011;11232;51.748;19.390;2023-02-03T03:34:42;8.43;;;4.43;;
22131;SDS011;11232;51.748;19.390;2023-02-03T03:39:47;8.63;;;4.17;;
22131;SDS011;11232;51.748;19.390;2023-02-03T03:42:19;7.90;;;4.00;;
22131;SDS011;11232;51.748;19.390;2023-02-03T03:47:23;12.27;;;3.97;;
22131;SDS011;11232;51.748;19.390;2023-02-03T03:49:52;9.27;;;4.07;;
22131;SDS011;11232;51.748;19.390;2023-02-03T03:52:22;11.00;;;4.70;;
22131;SDS011;11232;51.748;19.390;2023-02-03T03:54:49;8.13;;;4.20;;
22131;SDS011;11232;51.748;19.390;2023-02-03T03:57:18;14.97;;;4.93;;
22131;SDS011;11232;51.748;19.390;2023-02-03T03:59:47;10.63;;;4.33;;
22131;SDS011;11232;51.748;19.390;2023-02-03T04:02:15;9.90;;;4.80;;
22131;SDS011;11232;51.748;19.390;2023-02-03T04:04:41;9.57;;;4.70;;
22131;SDS011;11232;51.748;19.390;2023-02-03T04:07:09;12.23;;;4.57;;
22131;SDS011;11232;51.748;19.390;2023-02-03T04:09:36;9.77;;;4.60;;
22131;SDS011;11232;51.748;19.390;2023-02-03T04:12:04;12.73;;;5.40;;
22131;SDS011;11232;51.748;19.390;2023-02-03T04:14:32;9.27;;;4.33;;
22131;SDS011;11232;51.748;19.390;2023-02-03T04:16:58;10.57;;;4.47;;
22131;SDS011;11232;51.748;19.390;2023-02-03T04:19:24;9.87;;;5.13;;
22131;SDS011;11232;51.748;19.390;2023-02-03T04:21:50;12.30;;;5.20;;
22131;SDS011;11232;51.748;19.390;2023-02-03T04:24:16;8.20;;;5.07;;
22131;SDS011;11232;51.748;19.390;2023-02-03T04:26:42;12.83;;;5.20;;
22131;SDS011;11232;51.748;19.390;2023-02-03T04:29:08;9.33;;;5.20;;
22131;SDS011;11232;51.748;19.390;2023-02-03T04:31:34;13.23;;;5.40;;
22131;SDS011;11232;51.748;19.390;2023-02-03T04:34:00;10.33;;;5.27;;
22131;SDS011;11232;51.748;19.390;2023-02-03T04:36:26;11.97;;;5.87;;
22131;SDS011;11232;51.748;19.390;2023-02-03T04:38:52;13.23;;;6.00;;
22131;SDS011;11232;51.748;19.390;2023-02-03T04:41:18;13.47;;;5.73;;
22131;SDS011;11232;51.748;19.390;2023-02-03T04:43:44;17.47;;;6.33;;
22131;SDS011;11232;51.748;19.390;2023-02-03T04:46:10;14.97;;;7.23;;
22131;SDS011;11232;51.748;19.390;2023-02-03T04:48:36;17.40;;;6.67;;
22131;SDS011;11232;51.748;19.390;2023-02-03T04:51:06;12.87;;;6.93;;
22131;SDS011;11232;51.748;19.390;2023-02-03T04:53:33;16.60;;;7.23;;
22131;SDS011;11232;51.748;19.390;2023-02-03T04:55:59;15.20;;;7.07;;
22131;SDS011;11232;51.748;19.390;2023-02-03T04:58:25;14.70;;;6.93;;
22131;SDS011;11232;51.748;19.390;2023-02-03T05:00:52;17.97;;;7.20;;
22131;SDS011;11232;51.748;19.390;2023-02-03T05:03:18;15.63;;;7.23;;
22131;SDS011;11232;51.748;19.390;2023-02-03T05:05:44;11.53;;;6.53;;
22131;SDS011;11232;51.748;19.390;2023-02-03T05:08:10;17.93;;;7.70;;
22131;SDS011;11232;51.748;19.390;2023-02-03T05:10:36;17.03;;;6.60;;
22131;SDS011;11232;51.748;19.390;2023-02-03T05:13:02;17.40;;;7.70;;
22131;SDS011;11232;51.748;19.390;2023-02-03T05:15:28;11.57;;;6.70;;
22131;SDS011;11232;51.748;19.390;2023-02-03T05:17:54;15.10;;;6.40;;
22131;SDS011;11232;51.748;19.390;2023-02-03T05:20:20;14.53;;;6.87;;
22131;SDS011;11232;51.748;19.390;2023-02-03T05:22:46;20.20;;;6.67;;
22131;SDS011;11232;51.748;19.390;2023-02-03T05:25:12;15.37;;;6.90;;
22131;SDS011;11232;51.748;19.390;2023-02-03T05:27:39;13.17;;;6.90;;
22131;SDS011;11232;51.748;19.390;2023-02-03T05:30:06;14.90;;;6.37;;
22131;SDS011;11232;51.748;19.390;2023-02-03T05:32:32;17.47;;;6.53;;
22131;SDS011;11232;51.748;19.390;2023-02-03T05:34:58;15.07;;;6.87;;
22131;SDS011;11232;51.748;19.390;2023-02-03T05:37:24;19.77;;;7.53;;
22131;SDS011;11232;51.748;19.390;2023-02-03T05:39:50;20.30;;;7.63;;
22131;SDS011;11232;51.748;19.390;2023-02-03T05:42:16;18.23;;;7.30;;
22131;SDS011;11232;51.748;19.390;2023-02-03T05:44:42;14.47;;;7.07;;
22131;SDS011;11232;51.748;19.390;2023-02-03T05:47:08;20.43;;;8.23;;
22131;SDS011;11232;51.748;19.390;2023-02-03T05:49:34;15.47;;;7.73;;
22131;SDS011;11232;51.748;19.390;2023-02-03T05:52:00;15.47;;;7.43;;
22131;SDS011;11232;51.748;19.390;2023-02-03T05:54:26;14.13;;;7.10;;
22131;SDS011;11232;51.748;19.390;2023-02-03T05:56:52;17.40;;;7.43;;
22131;SDS011;11232;51.748;19.390;2023-02-03T05:59:18;15.17;;;6.97;;
22131;SDS011;11232;51.748;19.390;2023-02-03T06:01:44;16.37;;;7.10;;
22131;SDS011;11232;51.748;19.390;2023-02-03T06:04:10;11.77;;;6.70;;
22131;SDS011;11232;51.748;19.390;2023-02-03T06:06:36;17.87;;;6.83;;
22131;SDS011;11232;51.748;19.390;2023-02-03T06:09:03;12.30;;;6.30;;
22131;SDS011;11232;51.748;19.390;2023-02-03T06:11:29;14.83;;;6.63;;
22131;SDS011;11232;51.748;19.390;2023-02-03T06:13:56;11.40;;;6.37;;
22131;SDS011;11232;51.748;19.390;2023-02-03T06:16:22;13.40;;;6.27;;
22131;SDS011;11232;51.748;19.390;2023-02-03T06:18:50;13.80;;;6.17;;
22131;SDS011;11232;51.748;19.390;2023-02-03T06:21:16;15.63;;;6.43;;
22131;SDS011;11232;51.748;19.390;2023-02-03T06:23:42;15.63;;;6.70;;
22131;SDS011;11232;51.748;19.390;2023-02-03T06:26:08;12.60;;;6.33;;
22131;SDS011;11232;51.748;19.390;2023-02-03T06:28:34;15.50;;;7.40;;
22131;SDS011;11232;51.748;19.390;2023-02-03T06:31:02;13.47;;;6.17;;
22131;SDS011;11232;51.748;19.390;2023-02-03T06:33:28;14.97;;;6.90;;
22131;SDS011;11232;51.748;19.390;2023-02-03T06:35:54;14.87;;;7.00;;
22131;SDS011;11232;51.748;19.390;2023-02-03T06:38:20;17.27;;;7.80;;
22131;SDS011;11232;51.748;19.390;2023-02-03T06:40:46;19.77;;;9.10;;
22131;SDS011;11232;51.748;19.390;2023-02-03T06:43:12;20.47;;;8.60;;
22131;SDS011;11232;51.748;19.390;2023-02-03T06:45:38;22.83;;;10.43;;
22131;SDS011;11232;51.748;19.390;2023-02-03T06:48:04;20.57;;;10.67;;
22131;SDS011;11232;51.748;19.390;2023-02-03T06:50:31;20.37;;;10.87;;
22131;SDS011;11232;51.748;19.390;2023-02-03T06:52:57;24.13;;;10.77;;
22131;SDS011;11232;51.748;19.390;2023-02-03T06:55:23;24.27;;;11.43;;
22131;SDS011;11232;51.748;19.390;2023-02-03T06:57:49;22.40;;;10.73;;
22131;SDS011;11232;51.748;19.390;2023-02-03T07:00:16;22.67;;;10.47;;
22131;SDS011;11232;51.748;19.390;2023-02-03T07:02:42;20.20;;;9.00;;
22131;SDS011;11232;51.748;19.390;2023-02-03T07:05:08;17.70;;;8.50;;
22131;SDS011;11232;51.748;19.390;2023-02-03T07:07:34;19.47;;;8.47;;
22131;SDS011;11232;51.748;19.390;2023-02-03T07:10:02;15.43;;;7.90;;
22131;SDS011;11232;51.748;19.390;2023-02-03T07:12:28;16.23;;;8.03;;
22131;SDS011;11232;51.748;19.390;2023-02-03T07:14:54;13.63;;;7.03;;
22131;SDS011;11232;51.748;19.390;2023-02-03T07:17:20;14.53;;;7.00;;
22131;SDS011;11232;51.748;19.390;2023-02-03T07:19:46;14.10;;;6.80;;
22131;SDS011;11232;51.748;19.390;2023-02-03T07:22:11;13.70;;;6.53;;
22131;SDS011;11232;51.748;19.390;2023-02-03T07:24:38;14.10;;;6.90;;
22131;SDS011;11232;51.748;19.390;2023-02-03T07:27:04;16.33;;;7.33;;
22131;SDS011;11232;51.748;19.390;2023-02-03T07:29:30;18.63;;;7.20;;
22131;SDS011;11232;51.748;19.390;2023-02-03T07:31:55;12.37;;;7.20;;
22131;SDS011;11232;51.748;19.390;2023-02-03T07:34:21;13.80;;;6.27;;
22131;SDS011;11232;51.748;19.390;2023-02-03T07:36:47;13.03;;;6.50;;
22131;SDS011;11232;51.748;19.390;2023-02-03T07:39:13;15.87;;;6.77;;
22131;SDS011;11232;51.748;19.390;2023-02-03T07:41:40;15.07;;;6.67;;
22131;SDS011;11232;51.748;19.390;2023-02-03T07:44:06;16.47;;;7.10;;
22131;SDS011;11232;51.748;19.390;2023-02-03T07:46:33;12.07;;;6.20;;
22131;SDS011;11232;51.748;19.390;2023-02-03T07:49:03;15.43;;;6.93;;
22131;SDS011;11232;51.748;19.390;2023-02-03T07:51:29;12.67;;;5.73;;
22131;SDS011;11232;51.748;19.390;2023-02-03T07:53:55;14.40;;;6.90;;
22131;SDS011;11232;51.748;19.390;2023-02-03T07:56:22;13.57;;;6.30;;
22131;SDS011;11232;51.748;19.390;2023-02-03T07:58:50;13.87;;;6.37;;
22131;SDS011;11232;51.748;19.390;2023-02-03T08:01:17;9.17;;;4.67;;
22131;SDS011;11232;51.748;19.390;2023-02-03T08:03:43;9.30;;;5.23;;
22131;SDS011;11232;51.748;19.390;2023-02-03T08:06:09;12.87;;;5.17;;
22131;SDS011;11232;51.748;19.390;2023-02-03T08:08:35;8.03;;;4.67;;
22131;SDS011;11232;51.748;19.390;2023-02-03T08:11:01;12.70;;;4.90;;
22131;SDS011;11232;51.748;19.390;2023-02-03T08:13:27;11.80;;;4.63;;
22131;SDS011;11232;51.748;19.390;2023-02-03T08:15:53;10.77;;;4.67;;
22131;SDS011;11232;51.748;19.390;2023-02-03T08:18:19;9.97;;;4.50;;
22131;SDS011;11232;51.748;19.390;2023-02-03T08:20:45;10.73;;;4.90;;
22131;SDS011;11232;51.748;19.390;2023-02-03T08:23:12;11.23;;;4.87;;
22131;SDS011;11232;51.748;19.390;2023-02-03T08:25:38;10.73;;;5.00;;
22131;SDS011;11232;51.748;19.390;2023-02-03T08:28:04;10.73;;;5.40;;
22131;SDS011;11232;51.748;19.390;2023-02-03T08:30:30;9.83;;;4.87;;
22131;SDS011;11232;51.748;19.390;2023-02-03T08:32:56;9.07;;;4.70;;
22131;SDS011;11232;51.748;19.390;2023-02-03T08:35:23;9.47;;;5.30;;
22131;SDS011;11232;51.748;19.390;2023-02-03T08:37:49;8.63;;;4.97;;
22131;SDS011;11232;51.748;19.390;2023-02-03T08:40:15;8.77;;;4.77;;
22131;SDS011;11232;51.748;19.390;2023-02-03T08:42:41;11.50;;;5.20;;
22131;SDS011;11232;51.748;19.390;2023-02-03T08:45:07;11.67;;;5.07;;
22131;SDS011;11232;51.748;19.390;2023-02-03T08:47:33;10.10;;;4.93;;
22131;SDS011;11232;51.748;19.390;2023-02-03T08:50:00;10.57;;;4.60;;
22131;SDS011;11232;51.748;19.390;2023-02-03T08:52:26;9.97;;;4.40;;
22131;SDS011;11232;51.748;19.390;2023-02-03T08:54:52;11.67;;;4.33;;
22131;SDS011;11232;51.748;19.390;2023-02-03T08:57:18;9.90;;;4.77;;
22131;SDS011;11232;51.748;19.390;2023-02-03T08:59:44;13.00;;;4.40;;
22131;SDS011;11232;51.748;19.390;2023-02-03T09:02:14;10.27;;;4.60;;
22131;SDS011;11232;51.748;19.390;2023-02-03T09:04:42;9.43;;;4.80;;
22131;SDS011;11232;51.748;19.390;2023-02-03T09:07:08;9.47;;;4.87;;
22131;SDS011;11232;51.748;19.390;2023-02-03T09:09:34;10.03;;;4.60;;
22131;SDS011;11232;51.748;19.390;2023-02-03T09:12:00;12.60;;;5.37;;
22131;SDS011;11232;51.748;19.390;2023-02-03T09:14:29;11.53;;;5.20;;
22131;SDS011;11232;51.748;19.390;2023-02-03T09:16:56;12.30;;;5.20;;
22131;SDS011;11232;51.748;19.390;2023-02-03T09:19:21;9.23;;;5.30;;
22131;SDS011;11232;51.748;19.390;2023-02-03T09:21:47;10.03;;;4.70;;
22131;SDS011;11232;51.748;19.390;2023-02-03T09:24:14;10.47;;;4.87;;
22131;SDS011;11232;51.748;19.390;2023-02-03T09:26:41;10.43;;;4.93;;
22131;SDS011;11232;51.748;19.390;2023-02-03T09:29:07;12.87;;;5.50;;
22131;SDS011;11232;51.748;19.390;2023-02-03T09:31:33;11.53;;;5.73;;
22131;SDS011;11232;51.748;19.390;2023-02-03T09:33:59;11.40;;;4.90;;
22131;SDS011;11232;51.748;19.390;2023-02-03T09:36:25;8.70;;;4.77;;
22131;SDS011;11232;51.748;19.390;2023-02-03T09:38:51;10.47;;;4.90;;
22131;SDS011;11232;51.748;19.390;2023-02-03T09:46:22;9.90;;;5.50;;
22131;SDS011;11232;51.748;19.390;2023-02-03T09:48:51;9.90;;;5.10;;
22131;SDS011;11232;51.748;19.390;2023-02-03T09:51:19;10.67;;;5.60;;
22131;SDS011;11232;51.748;19.390;2023-02-03T09:53:51;17.23;;;5.40;;
22131;SDS011;11232;51.748;19.390;2023-02-03T09:56:22;12.03;;;4.83;;
22131;SDS011;11232;51.748;19.390;2023-02-03T09:58:51;16.27;;;6.03;;
22131;SDS011;11232;51.748;19.390;2023-02-03T10:01:17;10.47;;;5.27;;
22131;SDS011;11232;51.748;19.390;2023-02-03T10:03:54;9.77;;;4.93;;
22131;SDS011;11232;51.748;19.390;2023-02-03T10:11:52;11.10;;;5.73;;
22131;SDS011;11232;51.748;19.390;2023-02-03T10:19:39;13.30;;;5.57;;
22131;SDS011;11232;51.748;19.390;2023-02-03T10:22:07;13.63;;;5.90;;
22131;SDS011;11232;51.748;19.390;2023-02-03T10:24:41;12.10;;;5.93;;
22131;SDS011;11232;51.748;19.390;2023-02-03T10:27:14;11.97;;;6.17;;
22131;SDS011;11232;51.748;19.390;2023-02-03T10:29:42;8.40;;;4.43;;
22131;SDS011;11232;51.748;19.390;2023-02-03T10:32:09;11.27;;;5.20;;
22131;SDS011;11232;51.748;19.390;2023-02-03T10:34:35;8.37;;;4.37;;
22131;SDS011;11232;51.748;19.390;2023-02-03T10:37:03;8.47;;;4.13;;
22131;SDS011;11232;51.748;19.390;2023-02-03T10:39:32;11.40;;;4.67;;
22131;SDS011;11232;51.748;19.390;2023-02-03T10:42:01;7.93;;;4.77;;
22131;SDS011;11232;51.748;19.390;2023-02-03T10:44:35;8.43;;;5.23;;
22131;SDS011;11232;51.748;19.390;2023-02-03T10:47:08;10.40;;;4.57;;
22131;SDS011;11232;51.748;19.390;2023-02-03T10:49:39;9.50;;;4.63;;
22131;SDS011;11232;51.748;19.390;2023-02-03T10:52:07;7.23;;;3.70;;
22131;SDS011;11232;51.748;19.390;2023-02-03T10:54:48;10.77;;;4.17;;
22131;SDS011;11232;51.748;19.390;2023-02-03T10:57:14;6.77;;;3.30;;
22131;SDS011;11232;51.748;19.390;2023-02-03T10:59:41;9.20;;;3.87;;
22131;SDS011;11232;51.748;19.390;2023-02-03T11:02:08;5.47;;;3.43;;
22131;SDS011;11232;51.748;19.390;2023-02-03T11:04:35;5.50;;;3.60;;
22131;SDS011;11232;51.748;19.390;2023-02-03T11:07:05;7.70;;;3.90;;
22131;SDS011;11232;51.748;19.390;2023-02-03T11:09:36;8.50;;;3.93;;
22131;SDS011;11232;51.748;19.390;2023-02-03T11:12:06;13.20;;;4.83;;
22131;SDS011;11232;51.748;19.390;2023-02-03T11:14:37;8.73;;;4.30;;
22131;SDS011;11232;51.748;19.390;2023-02-03T11:17:06;10.13;;;4.73;;
22131;SDS011;11232;51.748;19.390;2023-02-03T11:19:33;10.30;;;4.17;;
22131;SDS011;11232;51.748;19.390;2023-02-03T11:22:01;9.77;;;4.43;;
22131;SDS011;11232;51.748;19.390;2023-02-03T11:24:31;13.77;;;5.90;;
22131;SDS011;11232;51.748;19.390;2023-02-03T11:26:59;12.10;;;4.37;;
22131;SDS011;11232;51.748;19.390;2023-02-03T11:29:32;9.80;;;4.70;;
22131;SDS011;11232;51.748;19.390;2023-02-03T11:32:00;9.17;;;4.70;;
22131;SDS011;11232;51.748;19.390;2023-02-03T11:34:28;11.10;;;5.70;;
22131;SDS011;11232;51.748;19.390;2023-02-03T11:36:55;12.93;;;5.53;;
22131;SDS011;11232;51.748;19.390;2023-02-03T11:39:28;10.67;;;5.77;;
22131;SDS011;11232;51.748;19.390;2023-02-03T11:41:59;10.77;;;5.73;;
22131;SDS011;11232;51.748;19.390;2023-02-03T11:44:26;12.57;;;6.13;;
22131;SDS011;11232;51.748;19.390;2023-02-03T11:47:02;11.90;;;5.70;;
22131;SDS011;11232;51.748;19.390;2023-02-03T11:49:42;9.77;;;5.30;;
22131;SDS011;11232;51.748;19.390;2023-02-03T11:52:26;9.23;;;4.90;;
22131;SDS011;11232;51.748;19.390;2023-02-03T11:59:57;8.97;;;4.60;;
22131;SDS011;11232;51.748;19.390;2023-02-03T12:08:22;8.87;;;4.63;;
22131;SDS011;11232;51.748;19.390;2023-02-03T12:10:54;11.80;;;5.13;;
22131;SDS011;11232;51.748;19.390;2023-02-03T12:13:25;10.90;;;4.80;;
22131;SDS011;11232;51.748;19.390;2023-02-03T12:15:58;9.20;;;4.23;;
22131;SDS011;11232;51.748;19.390;2023-02-03T12:26:20;9.07;;;4.70;;
22131;SDS011;11232;51.748;19.390;2023-02-03T12:28:55;10.43;;;4.93;;
22131;SDS011;11232;51.748;19.390;2023-02-03T12:33:55;11.97;;;5.67;;
22131;SDS011;11232;51.748;19.390;2023-02-03T12:36:25;11.93;;;5.57;;
22131;SDS011;11232;51.748;19.390;2023-02-03T12:38:58;8.87;;;5.10;;
22131;SDS011;11232;51.748;19.390;2023-02-03T12:41:27;11.27;;;4.80;;
22131;SDS011;11232;51.748;19.390;2023-02-03T12:43:56;9.73;;;5.17;;
22131;SDS011;11232;51.748;19.390;2023-02-03T12:46:25;10.40;;;5.30;;
22131;SDS011;11232;51.748;19.390;2023-02-03T12:49:00;15.97;;;6.13;;
22131;SDS011;11232;51.748;19.390;2023-02-03T12:53:56;12.77;;;6.30;;
22131;SDS011;11232;51.748;19.390;2023-02-03T12:56:25;14.80;;;5.70;;
22131;SDS011;11232;51.748;19.390;2023-02-03T12:58:54;10.70;;;6.40;;
22131;SDS011;11232;51.748;19.390;2023-02-03T13:09:00;19.83;;;6.80;;
22131;SDS011;11232;51.748;19.390;2023-02-03T13:11:29;14.00;;;7.40;;
22131;SDS011;11232;51.748;19.390;2023-02-03T13:14:41;17.10;;;8.17;;
22131;SDS011;11232;51.748;19.390;2023-02-03T13:16:49;14.70;;;7.83;;
22131;SDS011;11232;51.748;19.390;2023-02-03T13:19:17;17.43;;;9.00;;
22131;SDS011;11232;51.748;19.390;2023-02-03T13:21:47;17.40;;;9.10;;
22131;SDS011;11232;51.748;19.390;2023-02-03T13:24:13;16.47;;;8.03;;
22131;SDS011;11232;51.748;19.390;2023-02-03T13:34:54;12.93;;;6.90;;
22131;SDS011;11232;51.748;19.390;2023-02-03T13:42:26;16.10;;;8.40;;
22131;SDS011;11232;51.748;19.390;2023-02-03T13:44:56;14.73;;;8.40;;
22131;SDS011;11232;51.748;19.390;2023-02-03T13:47:23;14.77;;;8.40;;
22131;SDS011;11232;51.748;19.390;2023-02-03T13:49:52;19.07;;;9.00;;
22131;SDS011;11232;51.748;19.390;2023-02-03T13:52:37;17.63;;;8.70;;
22131;SDS011;11232;51.748;19.390;2023-02-03T13:55:05;14.13;;;7.73;;
22131;SDS011;11232;51.748;19.390;2023-02-03T13:57:35;17.37;;;8.43;;
22131;SDS011;11232;51.748;19.390;2023-02-03T14:02:53;15.57;;;8.23;;
22131;SDS011;11232;51.748;19.390;2023-02-03T14:13:34;14.90;;;7.93;;
22131;SDS011;11232;51.748;19.390;2023-02-03T14:16:13;15.67;;;8.60;;
22131;SDS011;11232;51.748;19.390;2023-02-03T14:18:43;14.53;;;8.60;;
22131;SDS011;11232;51.748;19.390;2023-02-03T14:21:20;16.23;;;7.83;;
22131;SDS011;11232;51.748;19.390;2023-02-03T14:24:01;18.70;;;8.27;;
22131;SDS011;11232;51.748;19.390;2023-02-03T14:26:36;15.37;;;8.77;;
22131;SDS011;11232;51.748;19.390;2023-02-03T14:29:03;20.83;;;8.97;;
22131;SDS011;11232;51.748;19.390;2023-02-03T14:31:30;16.73;;;9.33;;
22131;SDS011;11232;51.748;19.390;2023-02-03T14:36:31;18.73;;;9.97;;
22131;SDS011;11232;51.748;19.390;2023-02-03T14:39:00;21.93;;;10.97;;
22131;SDS011;11232;51.748;19.390;2023-02-03T14:41:40;24.33;;;9.63;;
22131;SDS011;11232;51.748;19.390;2023-02-03T14:44:20;16.77;;;8.90;;
22131;SDS011;11232;51.748;19.390;2023-02-03T14:57:18;19.40;;;8.53;;
22131;SDS011;11232;51.748;19.390;2023-02-03T15:02:19;20.43;;;9.53;;
22131;SDS011;11232;51.748;19.390;2023-02-03T15:04:47;17.90;;;9.90;;
22131;SDS011;11232;51.748;19.390;2023-02-03T15:07:33;22.30;;;9.93;;
22131;SDS011;11232;51.748;19.390;2023-02-03T15:10:00;23.37;;;10.03;;
22131;SDS011;11232;51.748;19.390;2023-02-03T15:12:26;26.17;;;11.90;;
22131;SDS011;11232;51.748;19.390;2023-02-03T15:15:10;24.37;;;11.20;;
22131;SDS011;11232;51.748;19.390;2023-02-03T15:17:37;20.97;;;10.13;;
22131;SDS011;11232;51.748;19.390;2023-02-03T15:20:14;26.80;;;12.60;;
22131;SDS011;11232;51.748;19.390;2023-02-03T15:22:40;24.87;;;12.27;;
22131;SDS011;11232;51.748;19.390;2023-02-03T15:25:12;32.27;;;12.00;;
22131;SDS011;11232;51.748;19.390;2023-02-03T15:27:40;27.80;;;13.40;;
22131;SDS011;11232;51.748;19.390;2023-02-03T15:30:16;27.73;;;13.07;;
22131;SDS011;11232;51.748;19.390;2023-02-03T15:32:46;29.60;;;13.97;;
22131;SDS011;11232;51.748;19.390;2023-02-03T15:35:15;29.23;;;13.67;;
22131;SDS011;11232;51.748;19.390;2023-02-03T15:37:44;29.87;;;14.00;;
22131;SDS011;11232;51.748;19.390;2023-02-03T15:40:18;33.73;;;14.50;;
22131;SDS011;11232;51.748;19.390;2023-02-03T15:43:01;38.77;;;15.97;;
22131;SDS011;11232;51.748;19.390;2023-02-03T15:45:32;33.37;;;15.23;;
22131;SDS011;11232;51.748;19.390;2023-02-03T15:50:45;39.50;;;17.03;;
22131;SDS011;11232;51.748;19.390;2023-02-03T15:53:15;65.17;;;24.70;;
22131;SDS011;11232;51.748;19.390;2023-02-03T15:55:43;70.73;;;27.20;;
22131;SDS011;11232;51.748;19.390;2023-02-03T15:58:29;72.20;;;28.13;;
22131;SDS011;11232;51.748;19.390;2023-02-03T16:01:00;65.87;;;26.67;;
22131;SDS011;11232;51.748;19.390;2023-02-03T16:03:31;51.37;;;24.57;;
22131;SDS011;11232;51.748;19.390;2023-02-03T16:06:05;49.60;;;22.83;;
22131;SDS011;11232;51.748;19.390;2023-02-03T16:08:36;51.27;;;21.50;;
22131;SDS011;11232;51.748;19.390;2023-02-03T16:11:24;48.73;;;21.40;;
22131;SDS011;11232;51.748;19.390;2023-02-03T16:13:51;54.63;;;20.53;;
22131;SDS011;11232;51.748;19.390;2023-02-03T16:16:23;45.33;;;20.00;;
22131;SDS011;11232;51.748;19.390;2023-02-03T16:18:57;49.37;;;19.33;;
22131;SDS011;11232;51.748;19.390;2023-02-03T16:21:24;45.47;;;18.20;;
22131;SDS011;11232;51.748;19.390;2023-02-03T16:23:51;40.23;;;17.03;;
22131;SDS011;11232;51.748;19.390;2023-02-03T16:26:18;47.90;;;17.93;;
22131;SDS011;11232;51.748;19.390;2023-02-03T16:31:58;37.63;;;16.57;;